Terminal Aerodrome Forecast
Issued by NWS Green Bay, WI

Home | Current Version | Previous Version | Text Only | Print | Product List | Glossary Off
Versions: 1 2 3 4 5 6 7 8 9 10 11 12 13 14 15 16 17 18 19 20 21 22 23 24 25 26 27 28 29 30 31 32 33 34 35 36 37 38 39 40 41 42

000
FTUS43 KGRB 250400 AAB
TAFGRB
TAF AMD
KGRB 250432Z 2505/2524 15007KT P6SM SCT030
      TEMPO 2505/2507 BKN030
     FM250700 16003KT 6SM BR BKN025
     FM251300 20006KT 5SM HZ SCT030 BKN070
     FM251900 23010G18KT 6SM HZ SCT035 BKN090=

USA.gov is the U.S. government's official web portal to all federal, state and local government web resources and services.